Terminal Aerodrome Forecast
Issued by NWS Austin/San Antonio, TX

Home | Current Version | Previous Version | Text Only | Print | Product List | Glossary On
Versions: 1 2 3 4 5 6 7 8 9 10 11 12 13 14 15 16 17 18 19 20 21 22 23 24 25 26 27
000
FTUS44 KEWX 290302 AAA
TAFAUS
TAF AMD
KAUS 290302Z 2903/3006 16011KT P6SM SCT250
     FM290500 17009KT 5SM -SHRA BR OVC015
      TEMPO 2906/2910 VRB25G40KT 1SM +TSRA SCT008 OVC035CB
     FM291700 16012KT P6SM BKN025 BKN040=

USA.gov is the U.S. government's official web portal to all federal, state and local government web resources and services.